sensor_id;sensor_type;location;lat;lon;timestamp;temperature;humidity
17381;DHT22;8808;52.478;13.378;2023-05-10T00:02:01;13.40;90.40
17381;DHT22;8808;52.478;13.378;2023-05-10T00:04:28;13.50;90.50
17381;DHT22;8808;52.478;13.378;2023-05-10T00:06:55;13.40;90.50
17381;DHT22;8808;52.478;13.378;2023-05-10T00:09:22;13.40;90.60
17381;DHT22;8808;52.478;13.378;2023-05-10T00:11:49;13.40;90.60
17381;DHT22;8808;52.478;13.378;2023-05-10T00:14:17;13.30;90.90
17381;DHT22;8808;52.478;13.378;2023-05-10T00:16:44;13.30;90.90
17381;DHT22;8808;52.478;13.378;2023-05-10T00:19:11;13.30;91.00
17381;DHT22;8808;52.478;13.378;2023-05-10T00:21:38;13.40;91.30
17381;DHT22;8808;52.478;13.378;2023-05-10T00:24:05;13.20;91.40
17381;DHT22;8808;52.478;13.378;2023-05-10T00:26:32;13.10;91.70
17381;DHT22;8808;52.478;13.378;2023-05-10T00:28:59;13.10;91.80
17381;DHT22;8808;52.478;13.378;2023-05-10T00:31:27;13.00;92.00
17381;DHT22;8808;52.478;13.378;2023-05-10T00:33:55;13.00;92.30
17381;DHT22;8808;52.478;13.378;2023-05-10T00:36:22;13.00;92.30
17381;DHT22;8808;52.478;13.378;2023-05-10T00:38:49;12.90;92.50
17381;DHT22;8808;52.478;13.378;2023-05-10T00:41:16;12.80;92.70
17381;DHT22;8808;52.478;13.378;2023-05-10T00:43:43;12.90;93.00
17381;DHT22;8808;52.478;13.378;2023-05-10T00:46:10;12.90;93.20
17381;DHT22;8808;52.478;13.378;2023-05-10T00:48:39;12.80;93.00
17381;DHT22;8808;52.478;13.378;2023-05-10T00:51:06;12.70;93.30
17381;DHT22;8808;52.478;13.378;2023-05-10T00:53:34;12.70;93.50
17381;DHT22;8808;52.478;13.378;2023-05-10T00:56:01;12.70;93.50
17381;DHT22;8808;52.478;13.378;2023-05-10T00:58:28;12.70;93.70
17381;DHT22;8808;52.478;13.378;2023-05-10T01:03:32;12.60;94.10
17381;DHT22;8808;52.478;13.378;2023-05-10T01:06:00;12.50;94.30
17381;DHT22;8808;52.478;13.378;2023-05-10T01:08:29;12.50;94.40
17381;DHT22;8808;52.478;13.378;2023-05-10T01:10:56;12.50;94.90
17381;DHT22;8808;52.478;13.378;2023-05-10T01:13:30;12.40;94.90
17381;DHT22;8808;52.478;13.378;2023-05-10T01:15:58;12.40;95.20
17381;DHT22;8808;52.478;13.378;2023-05-10T01:18:28;12.30;96.30
17381;DHT22;8808;52.478;13.378;2023-05-10T01:21:07;12.20;96.90
17381;DHT22;8808;52.478;13.378;2023-05-10T01:26:54;12.20;97.00
17381;DHT22;8808;52.478;13.378;2023-05-10T01:29:43;12.20;97.20
17381;DHT22;8808;52.478;13.378;2023-05-10T01:32:29;12.30;97.20
17381;DHT22;8808;52.478;13.378;2023-05-10T01:35:02;12.30;97.20
17381;DHT22;8808;52.478;13.378;2023-05-10T01:37:36;12.30;97.70
17381;DHT22;8808;52.478;13.378;2023-05-10T01:40:13;12.10;98.30
17381;DHT22;8808;52.478;13.378;2023-05-10T01:42:46;12.10;98.00
17381;DHT22;8808;52.478;13.378;2023-05-10T01:45:18;12.10;98.80
17381;DHT22;8808;52.478;13.378;2023-05-10T01:47:52;12.10;98.80
17381;DHT22;8808;52.478;13.378;2023-05-10T01:50:24;12.10;98.60
17381;DHT22;8808;52.478;13.378;2023-05-10T01:52:56;12.10;99.10
17381;DHT22;8808;52.478;13.378;2023-05-10T01:55:26;12.00;99.30
17381;DHT22;8808;52.478;13.378;2023-05-10T01:58:02;12.00;99.40
17381;DHT22;8808;52.478;13.378;2023-05-10T02:00:30;12.00;99.90
17381;DHT22;8808;52.478;13.378;2023-05-10T02:03:01;12.00;99.90
17381;DHT22;8808;52.478;13.378;2023-05-10T02:05:32;11.90;99.90
17381;DHT22;8808;52.478;13.378;2023-05-10T02:08:00;11.90;99.90
17381;DHT22;8808;52.478;13.378;2023-05-10T02:10:28;11.80;99.90
17381;DHT22;8808;52.478;13.378;2023-05-10T02:12:58;11.80;99.90
17381;DHT22;8808;52.478;13.378;2023-05-10T02:15:26;11.80;99.90
17381;DHT22;8808;52.478;13.378;2023-05-10T02:17:55;11.80;99.90
17381;DHT22;8808;52.478;13.378;2023-05-10T02:20:25;11.80;99.90
17381;DHT22;8808;52.478;13.378;2023-05-10T02:22:54;11.60;99.90
17381;DHT22;8808;52.478;13.378;2023-05-10T02:25:23;11.70;99.90
17381;DHT22;8808;52.478;13.378;2023-05-10T02:27:53;11.60;99.90
17381;DHT22;8808;52.478;13.378;2023-05-10T02:30:22;11.50;99.90
17381;DHT22;8808;52.478;13.378;2023-05-10T02:32:49;11.40;99.90
17381;DHT22;8808;52.478;13.378;2023-05-10T02:35:17;11.40;99.90
17381;DHT22;8808;52.478;13.378;2023-05-10T02:37:47;11.50;99.90
17381;DHT22;8808;52.478;13.378;2023-05-10T02:40:15;11.50;99.90
17381;DHT22;8808;52.478;13.378;2023-05-10T02:42:44;11.50;99.90
17381;DHT22;8808;52.478;13.378;2023-05-10T02:45:14;11.40;99.90
17381;DHT22;8808;52.478;13.378;2023-05-10T02:47:41;11.40;99.90
17381;DHT22;8808;52.478;13.378;2023-05-10T02:50:09;11.40;99.90
17381;DHT22;8808;52.478;13.378;2023-05-10T02:52:42;11.20;99.90
17381;DHT22;8808;52.478;13.378;2023-05-10T02:55:13;11.20;99.90
17381;DHT22;8808;52.478;13.378;2023-05-10T02:57:43;11.20;99.90
17381;DHT22;8808;52.478;13.378;2023-05-10T03:00:11;11.10;99.90
17381;DHT22;8808;52.478;13.378;2023-05-10T03:02:38;11.20;99.90
17381;DHT22;8808;52.478;13.378;2023-05-10T03:05:05;11.20;99.90
17381;DHT22;8808;52.478;13.378;2023-05-10T03:07:33;11.20;99.90
17381;DHT22;8808;52.478;13.378;2023-05-10T03:10:00;11.10;99.90
17381;DHT22;8808;52.478;13.378;2023-05-10T03:12:36;11.10;99.90
17381;DHT22;8808;52.478;13.378;2023-05-10T03:15:11;11.10;99.90
17381;DHT22;8808;52.478;13.378;2023-05-10T03:17:45;11.10;99.90
17381;DHT22;8808;52.478;13.378;2023-05-10T03:20:20;11.10;99.90
17381;DHT22;8808;52.478;13.378;2023-05-10T03:22:52;11.10;99.90
17381;DHT22;8808;52.478;13.378;2023-05-10T03:25:21;11.20;99.90
17381;DHT22;8808;52.478;13.378;2023-05-10T03:27:50;11.20;99.90
17381;DHT22;8808;52.478;13.378;2023-05-10T03:30:18;11.10;99.90
17381;DHT22;8808;52.478;13.378;2023-05-10T03:32:46;11.20;99.90
17381;DHT22;8808;52.478;13.378;2023-05-10T03:35:13;11.10;99.90
17381;DHT22;8808;52.478;13.378;2023-05-10T03:37:40;11.00;99.90
17381;DHT22;8808;52.478;13.378;2023-05-10T03:40:08;11.00;99.90
17381;DHT22;8808;52.478;13.378;2023-05-10T03:42:35;11.00;99.90
17381;DHT22;8808;52.478;13.378;2023-05-10T03:45:03;11.00;99.90
17381;DHT22;8808;52.478;13.378;2023-05-10T03:47:30;11.00;99.90
17381;DHT22;8808;52.478;13.378;2023-05-10T03:49:57;11.00;99.90
17381;DHT22;8808;52.478;13.378;2023-05-10T03:52:24;11.00;99.90
17381;DHT22;8808;52.478;13.378;2023-05-10T03:54:51;11.00;99.90
17381;DHT22;8808;52.478;13.378;2023-05-10T03:57:18;11.00;99.90
17381;DHT22;8808;52.478;13.378;2023-05-10T03:59:45;11.10;99.90
17381;DHT22;8808;52.478;13.378;2023-05-10T04:02:14;11.10;99.90
17381;DHT22;8808;52.478;13.378;2023-05-10T04:04:41;11.00;99.90
17381;DHT22;8808;52.478;13.378;2023-05-10T04:07:08;11.20;99.90
17381;DHT22;8808;52.478;13.378;2023-05-10T04:09:35;11.20;99.90
17381;DHT22;8808;52.478;13.378;2023-05-10T04:12:03;11.30;99.90
17381;DHT22;8808;52.478;13.378;2023-05-10T04:14:31;11.30;99.90
17381;DHT22;8808;52.478;13.378;2023-05-10T04:16:57;11.40;99.90
17381;DHT22;8808;52.478;13.378;2023-05-10T04:19:29;11.40;99.90
17381;DHT22;8808;52.478;13.378;2023-05-10T04:21:56;11.40;99.90
17381;DHT22;8808;52.478;13.378;2023-05-10T04:24:23;11.50;99.90
17381;DHT22;8808;52.478;13.378;2023-05-10T04:26:50;11.60;99.90
17381;DHT22;8808;52.478;13.378;2023-05-10T04:29:17;11.70;99.90
17381;DHT22;8808;52.478;13.378;2023-05-10T04:31:44;11.80;99.90
17381;DHT22;8808;52.478;13.378;2023-05-10T04:34:11;11.90;99.90
17381;DHT22;8808;52.478;13.378;2023-05-10T04:36:39;11.90;99.90
17381;DHT22;8808;52.478;13.378;2023-05-10T04:39:06;12.10;99.90
17381;DHT22;8808;52.478;13.378;2023-05-10T04:41:34;12.10;99.90
17381;DHT22;8808;52.478;13.378;2023-05-10T04:44:01;12.30;99.90
17381;DHT22;8808;52.478;13.378;2023-05-10T04:46:28;12.40;99.90
17381;DHT22;8808;52.478;13.378;2023-05-10T04:48:55;12.50;99.90
17381;DHT22;8808;52.478;13.378;2023-05-10T04:51:22;12.60;99.90
17381;DHT22;8808;52.478;13.378;2023-05-10T04:53:50;12.50;99.90
17381;DHT22;8808;52.478;13.378;2023-05-10T04:56:17;12.70;99.90
17381;DHT22;8808;52.478;13.378;2023-05-10T04:58:45;12.70;99.90
17381;DHT22;8808;52.478;13.378;2023-05-10T05:01:12;12.70;99.90
17381;DHT22;8808;52.478;13.378;2023-05-10T05:03:38;12.80;99.90
17381;DHT22;8808;52.478;13.378;2023-05-10T05:06:06;13.00;99.90
17381;DHT22;8808;52.478;13.378;2023-05-10T05:08:33;12.90;99.90
17381;DHT22;8808;52.478;13.378;2023-05-10T05:11:01;13.20;99.90
17381;DHT22;8808;52.478;13.378;2023-05-10T05:13:28;13.20;99.90
17381;DHT22;8808;52.478;13.378;2023-05-10T05:15:55;13.30;99.90
17381;DHT22;8808;52.478;13.378;2023-05-10T05:18:22;13.50;99.90
17381;DHT22;8808;52.478;13.378;2023-05-10T05:20:49;13.70;99.90
17381;DHT22;8808;52.478;13.378;2023-05-10T05:23:16;13.70;99.70
17381;DHT22;8808;52.478;13.378;2023-05-10T05:25:44;13.90;99.80
17381;DHT22;8808;52.478;13.378;2023-05-10T05:28:12;13.80;99.10
17381;DHT22;8808;52.478;13.378;2023-05-10T05:30:39;13.90;99.00
17381;DHT22;8808;52.478;13.378;2023-05-10T05:33:06;14.00;98.60
17381;DHT22;8808;52.478;13.378;2023-05-10T05:35:33;14.00;98.00
17381;DHT22;8808;52.478;13.378;2023-05-10T05:38:00;14.10;98.90
17381;DHT22;8808;52.478;13.378;2023-05-10T05:40:27;14.20;97.80
17381;DHT22;8808;52.478;13.378;2023-05-10T05:42:54;14.20;97.50
17381;DHT22;8808;52.478;13.378;2023-05-10T05:45:22;14.20;97.40
17381;DHT22;8808;52.478;13.378;2023-05-10T05:47:49;14.30;97.10
17381;DHT22;8808;52.478;13.378;2023-05-10T05:50:16;14.50;97.40
17381;DHT22;8808;52.478;13.378;2023-05-10T05:52:43;14.50;96.70
17381;DHT22;8808;52.478;13.378;2023-05-10T05:55:10;14.50;96.40
17381;DHT22;8808;52.478;13.378;2023-05-10T05:57:38;14.50;96.80
17381;DHT22;8808;52.478;13.378;2023-05-10T06:00:06;14.70;96.60
17381;DHT22;8808;52.478;13.378;2023-05-10T06:02:34;14.80;96.40
17381;DHT22;8808;52.478;13.378;2023-05-10T06:05:02;15.00;96.20
17381;DHT22;8808;52.478;13.378;2023-05-10T06:07:29;15.00;97.00
17381;DHT22;8808;52.478;13.378;2023-05-10T06:09:56;15.40;96.40
17381;DHT22;8808;52.478;13.378;2023-05-10T06:12:22;15.30;95.10
17381;DHT22;8808;52.478;13.378;2023-05-10T06:14:50;15.00;96.20
17381;DHT22;8808;52.478;13.378;2023-05-10T06:17:17;15.30;95.90
17381;DHT22;8808;52.478;13.378;2023-05-10T06:19:45;15.20;95.30
17381;DHT22;8808;52.478;13.378;2023-05-10T06:22:12;15.30;95.30
17381;DHT22;8808;52.478;13.378;2023-05-10T06:24:39;15.60;95.10
17381;DHT22;8808;52.478;13.378;2023-05-10T06:27:07;15.40;94.60
17381;DHT22;8808;52.478;13.378;2023-05-10T06:29:34;15.40;94.50
17381;DHT22;8808;52.478;13.378;2023-05-10T06:32:00;15.50;94.50
17381;DHT22;8808;52.478;13.378;2023-05-10T06:34:27;16.10;94.90
17381;DHT22;8808;52.478;13.378;2023-05-10T06:36:56;16.00;93.50
17381;DHT22;8808;52.478;13.378;2023-05-10T06:39:23;15.80;94.40
17381;DHT22;8808;52.478;13.378;2023-05-10T06:41:50;16.20;93.40
17381;DHT22;8808;52.478;13.378;2023-05-10T06:44:18;16.30;93.50
17381;DHT22;8808;52.478;13.378;2023-05-10T06:46:44;16.30;93.30
17381;DHT22;8808;52.478;13.378;2023-05-10T06:49:11;16.30;92.80
17381;DHT22;8808;52.478;13.378;2023-05-10T06:51:38;16.30;92.80
17381;DHT22;8808;52.478;13.378;2023-05-10T06:54:07;16.50;92.70
17381;DHT22;8808;52.478;13.378;2023-05-10T06:56:34;16.50;92.80
17381;DHT22;8808;52.478;13.378;2023-05-10T06:59:01;16.40;92.00
17381;DHT22;8808;52.478;13.378;2023-05-10T07:01:28;16.30;91.70
17381;DHT22;8808;52.478;13.378;2023-05-10T07:03:55;16.70;92.20
17381;DHT22;8808;52.478;13.378;2023-05-10T07:06:22;16.50;91.60
17381;DHT22;8808;52.478;13.378;2023-05-10T07:08:49;16.80;91.90
17381;DHT22;8808;52.478;13.378;2023-05-10T07:11:17;17.80;92.00
17381;DHT22;8808;52.478;13.378;2023-05-10T07:13:44;17.60;91.00
17381;DHT22;8808;52.478;13.378;2023-05-10T07:16:12;17.60;91.10
17381;DHT22;8808;52.478;13.378;2023-05-10T07:18:39;17.50;90.80
17381;DHT22;8808;52.478;13.378;2023-05-10T07:21:06;17.50;90.60
17381;DHT22;8808;52.478;13.378;2023-05-10T07:23:33;17.20;90.10
17381;DHT22;8808;52.478;13.378;2023-05-10T07:25:59;17.30;91.00
17381;DHT22;8808;52.478;13.378;2023-05-10T07:28:29;17.20;91.10
17381;DHT22;8808;52.478;13.378;2023-05-10T07:30:56;17.40;90.30
17381;DHT22;8808;52.478;13.378;2023-05-10T07:33:23;17.40;90.10
17381;DHT22;8808;52.478;13.378;2023-05-10T07:35:50;17.50;90.00
17381;DHT22;8808;52.478;13.378;2023-05-10T07:38:17;17.50;90.10
17381;DHT22;8808;52.478;13.378;2023-05-10T07:40:44;18.00;90.20
17381;DHT22;8808;52.478;13.378;2023-05-10T07:43:11;17.80;89.20
17381;DHT22;8808;52.478;13.378;2023-05-10T07:45:39;17.80;89.90
17381;DHT22;8808;52.478;13.378;2023-05-10T07:48:06;18.50;90.00
17381;DHT22;8808;52.478;13.378;2023-05-10T07:50:33;18.20;89.30
17381;DHT22;8808;52.478;13.378;2023-05-10T07:53:00;18.20;87.60
17381;DHT22;8808;52.478;13.378;2023-05-10T07:55:27;18.00;88.70
17381;DHT22;8808;52.478;13.378;2023-05-10T07:57:54;18.20;88.70
17381;DHT22;8808;52.478;13.378;2023-05-10T08:00:21;18.50;87.50
17381;DHT22;8808;52.478;13.378;2023-05-10T08:02:49;18.50;88.10
17381;DHT22;8808;52.478;13.378;2023-05-10T08:05:16;18.60;87.40
17381;DHT22;8808;52.478;13.378;2023-05-10T08:07:43;18.50;87.20
17381;DHT22;8808;52.478;13.378;2023-05-10T08:10:11;18.70;87.00
17381;DHT22;8808;52.478;13.378;2023-05-10T08:12:38;18.80;86.60
17381;DHT22;8808;52.478;13.378;2023-05-10T08:15:06;18.60;86.20
17381;DHT22;8808;52.478;13.378;2023-05-10T08:17:33;18.60;86.00
17381;DHT22;8808;52.478;13.378;2023-05-10T08:20:01;18.90;87.30
17381;DHT22;8808;52.478;13.378;2023-05-10T08:22:28;19.10;87.10
17381;DHT22;8808;52.478;13.378;2023-05-10T08:24:55;19.00;87.50
17381;DHT22;8808;52.478;13.378;2023-05-10T08:27:22;19.20;87.10
17381;DHT22;8808;52.478;13.378;2023-05-10T08:29:49;19.30;87.40
17381;DHT22;8808;52.478;13.378;2023-05-10T08:32:16;19.20;85.70
17381;DHT22;8808;52.478;13.378;2023-05-10T08:34:43;19.00;85.60
17381;DHT22;8808;52.478;13.378;2023-05-10T08:37:11;18.70;84.60
17381;DHT22;8808;52.478;13.378;2023-05-10T08:39:38;19.10;85.30
17381;DHT22;8808;52.478;13.378;2023-05-10T08:42:06;19.30;84.80
17381;DHT22;8808;52.478;13.378;2023-05-10T08:44:35;19.50;86.10
17381;DHT22;8808;52.478;13.378;2023-05-10T08:47:05;19.80;83.60
17381;DHT22;8808;52.478;13.378;2023-05-10T08:49:33;19.40;82.80
17381;DHT22;8808;52.478;13.378;2023-05-10T08:52:02;19.50;84.60
17381;DHT22;8808;52.478;13.378;2023-05-10T08:54:31;19.70;84.30
17381;DHT22;8808;52.478;13.378;2023-05-10T08:56:59;19.60;84.50
17381;DHT22;8808;52.478;13.378;2023-05-10T08:59:27;19.40;84.30
17381;DHT22;8808;52.478;13.378;2023-05-10T09:01:56;19.50;83.80
17381;DHT22;8808;52.478;13.378;2023-05-10T09:04:24;19.70;83.50
17381;DHT22;8808;52.478;13.378;2023-05-10T09:06:51;20.00;82.00
17381;DHT22;8808;52.478;13.378;2023-05-10T09:09:18;20.00;82.20
17381;DHT22;8808;52.478;13.378;2023-05-10T09:11:47;20.00;82.50
17381;DHT22;8808;52.478;13.378;2023-05-10T09:14:15;20.40;81.50
17381;DHT22;8808;52.478;13.378;2023-05-10T09:16:42;20.50;81.50
17381;DHT22;8808;52.478;13.378;2023-05-10T09:19:10;20.30;82.30
17381;DHT22;8808;52.478;13.378;2023-05-10T09:21:37;20.40;81.50
17381;DHT22;8808;52.478;13.378;2023-05-10T09:24:05;20.20;81.10
17381;DHT22;8808;52.478;13.378;2023-05-10T09:26:32;20.40;82.10
17381;DHT22;8808;52.478;13.378;2023-05-10T09:29:04;20.50;82.30
17381;DHT22;8808;52.478;13.378;2023-05-10T09:31:45;20.70;82.00
17381;DHT22;8808;52.478;13.378;2023-05-10T09:34:17;21.00;80.50
17381;DHT22;8808;52.478;13.378;2023-05-10T09:36:54;20.70;81.00
17381;DHT22;8808;52.478;13.378;2023-05-10T09:39:30;20.50;80.60
17381;DHT22;8808;52.478;13.378;2023-05-10T09:41:58;20.80;80.70
17381;DHT22;8808;52.478;13.378;2023-05-10T09:44:27;20.70;80.10
17381;DHT22;8808;52.478;13.378;2023-05-10T09:46:54;20.90;80.40
17381;DHT22;8808;52.478;13.378;2023-05-10T09:49:21;21.00;82.10
17381;DHT22;8808;52.478;13.378;2023-05-10T09:52:00;20.80;79.10
17381;DHT22;8808;52.478;13.378;2023-05-10T09:54:27;21.00;79.80
17381;DHT22;8808;52.478;13.378;2023-05-10T09:56:54;20.90;80.20
17381;DHT22;8808;52.478;13.378;2023-05-10T09:59:21;21.00;80.30
17381;DHT22;8808;52.478;13.378;2023-05-10T10:01:51;21.10;79.30
17381;DHT22;8808;52.478;13.378;2023-05-10T10:04:20;21.00;79.00
17381;DHT22;8808;52.478;13.378;2023-05-10T10:06:47;21.40;79.30
17381;DHT22;8808;52.478;13.378;2023-05-10T10:09:24;21.60;77.70
17381;DHT22;8808;52.478;13.378;2023-05-10T10:11:52;21.10;78.50
17381;DHT22;8808;52.478;13.378;2023-05-10T10:14:21;21.50;80.00
17381;DHT22;8808;52.478;13.378;2023-05-10T10:16:50;21.50;77.90
17381;DHT22;8808;52.478;13.378;2023-05-10T10:19:18;21.50;77.40
17381;DHT22;8808;52.478;13.378;2023-05-10T10:21:45;21.90;76.80
17381;DHT22;8808;52.478;13.378;2023-05-10T10:24:12;21.70;77.00
17381;DHT22;8808;52.478;13.378;2023-05-10T10:26:40;21.60;77.00
17381;DHT22;8808;52.478;13.378;2023-05-10T10:29:15;21.60;76.60
17381;DHT22;8808;52.478;13.378;2023-05-10T10:31:47;21.60;78.10
17381;DHT22;8808;52.478;13.378;2023-05-10T10:34:25;21.70;77.90
17381;DHT22;8808;52.478;13.378;2023-05-10T10:36:55;21.90;77.80
17381;DHT22;8808;52.478;13.378;2023-05-10T10:39:24;22.10;76.20
17381;DHT22;8808;52.478;13.378;2023-05-10T10:41:52;21.70;76.00
17381;DHT22;8808;52.478;13.378;2023-05-10T10:44:24;21.90;76.30
17381;DHT22;8808;52.478;13.378;2023-05-10T10:47:05;22.20;76.40
17381;DHT22;8808;52.478;13.378;2023-05-10T10:49:38;22.20;74.10
17381;DHT22;8808;52.478;13.378;2023-05-10T10:52:18;22.10;74.60
17381;DHT22;8808;52.478;13.378;2023-05-10T10:54:50;22.40;73.60
17381;DHT22;8808;52.478;13.378;2023-05-10T10:57:19;22.10;72.90
17381;DHT22;8808;52.478;13.378;2023-05-10T10:59:47;21.90;72.10
17381;DHT22;8808;52.478;13.378;2023-05-10T11:02:33;21.80;75.20
17381;DHT22;8808;52.478;13.378;2023-05-10T11:05:22;22.00;74.90
17381;DHT22;8808;52.478;13.378;2023-05-10T11:07:53;22.20;75.70
17381;DHT22;8808;52.478;13.378;2023-05-10T11:10:20;22.10;73.70
17381;DHT22;8808;52.478;13.378;2023-05-10T11:12:52;22.60;73.40
17381;DHT22;8808;52.478;13.378;2023-05-10T11:15:19;22.60;72.00
17381;DHT22;8808;52.478;13.378;2023-05-10T11:17:48;22.60;73.00
17381;DHT22;8808;52.478;13.378;2023-05-10T11:20:18;22.60;72.90
17381;DHT22;8808;52.478;13.378;2023-05-10T11:22:52;22.80;73.20
17381;DHT22;8808;52.478;13.378;2023-05-10T11:25:19;23.00;73.40
17381;DHT22;8808;52.478;13.378;2023-05-10T11:27:48;23.30;72.50
17381;DHT22;8808;52.478;13.378;2023-05-10T11:30:15;23.00;72.30
17381;DHT22;8808;52.478;13.378;2023-05-10T11:32:42;23.20;72.00
17381;DHT22;8808;52.478;13.378;2023-05-10T11:35:10;23.10;71.70
17381;DHT22;8808;52.478;13.378;2023-05-10T11:37:40;23.10;71.10
17381;DHT22;8808;52.478;13.378;2023-05-10T11:40:10;23.40;69.10
17381;DHT22;8808;52.478;13.378;2023-05-10T11:42:37;23.30;68.80
17381;DHT22;8808;52.478;13.378;2023-05-10T11:45:05;23.40;69.80
17381;DHT22;8808;52.478;13.378;2023-05-10T11:47:32;23.30;68.60
17381;DHT22;8808;52.478;13.378;2023-05-10T11:50:01;23.50;67.50
17381;DHT22;8808;52.478;13.378;2023-05-10T11:52:28;23.00;69.00
17381;DHT22;8808;52.478;13.378;2023-05-10T11:54:57;23.10;68.60
17381;DHT22;8808;52.478;13.378;2023-05-10T11:57:27;22.70;69.00
17381;DHT22;8808;52.478;13.378;2023-05-10T11:59:54;22.60;71.10
17381;DHT22;8808;52.478;13.378;2023-05-10T12:02:21;23.10;70.00
17381;DHT22;8808;52.478;13.378;2023-05-10T12:04:48;23.10;70.00
17381;DHT22;8808;52.478;13.378;2023-05-10T12:07:16;23.40;68.50
17381;DHT22;8808;52.478;13.378;2023-05-10T12:09:43;23.50;67.90
17381;DHT22;8808;52.478;13.378;2023-05-10T12:12:16;23.40;68.90
17381;DHT22;8808;52.478;13.378;2023-05-10T12:14:43;23.00;68.60
17381;DHT22;8808;52.478;13.378;2023-05-10T12:17:11;23.40;68.80
17381;DHT22;8808;52.478;13.378;2023-05-10T12:19:39;23.40;68.10
17381;DHT22;8808;52.478;13.378;2023-05-10T12:22:06;23.10;70.20
17381;DHT22;8808;52.478;13.378;2023-05-10T12:24:34;23.00;69.20
17381;DHT22;8808;52.478;13.378;2023-05-10T12:27:04;23.30;69.90
17381;DHT22;8808;52.478;13.378;2023-05-10T12:29:35;23.10;69.30
17381;DHT22;8808;52.478;13.378;2023-05-10T12:32:02;23.20;69.20
17381;DHT22;8808;52.478;13.378;2023-05-10T12:34:31;23.30;68.60
17381;DHT22;8808;52.478;13.378;2023-05-10T12:37:00;23.50;70.10
17381;DHT22;8808;52.478;13.378;2023-05-10T12:39:38;23.50;70.80
17381;DHT22;8808;52.478;13.378;2023-05-10T12:42:06;23.30;70.60
17381;DHT22;8808;52.478;13.378;2023-05-10T12:44:34;23.40;70.10
17381;DHT22;8808;52.478;13.378;2023-05-10T12:47:01;23.00;70.40
17381;DHT22;8808;52.478;13.378;2023-05-10T12:49:28;23.10;71.10
17381;DHT22;8808;52.478;13.378;2023-05-10T12:51:55;23.30;69.60
17381;DHT22;8808;52.478;13.378;2023-05-10T12:54:22;23.60;69.30
17381;DHT22;8808;52.478;13.378;2023-05-10T12:56:49;23.60;70.00
17381;DHT22;8808;52.478;13.378;2023-05-10T12:59:16;23.40;68.70
17381;DHT22;8808;52.478;13.378;2023-05-10T13:01:44;23.40;68.80
17381;DHT22;8808;52.478;13.378;2023-05-10T13:04:11;23.20;69.50
17381;DHT22;8808;52.478;13.378;2023-05-10T13:06:38;23.00;68.90
17381;DHT22;8808;52.478;13.378;2023-05-10T13:09:05;23.20;68.70
17381;DHT22;8808;52.478;13.378;2023-05-10T13:11:32;23.40;68.60
17381;DHT22;8808;52.478;13.378;2023-05-10T13:13:59;23.60;67.90
17381;DHT22;8808;52.478;13.378;2023-05-10T13:16:26;23.30;68.10
17381;DHT22;8808;52.478;13.378;2023-05-10T13:18:55;23.00;68.80
17381;DHT22;8808;52.478;13.378;2023-05-10T13:21:22;23.00;69.30
17381;DHT22;8808;52.478;13.378;2023-05-10T13:23:53;23.40;68.10
17381;DHT22;8808;52.478;13.378;2023-05-10T13:26:20;23.60;68.60
17381;DHT22;8808;52.478;13.378;2023-05-10T13:28:46;23.40;66.50
17381;DHT22;8808;52.478;13.378;2023-05-10T13:31:14;23.40;67.20
17381;DHT22;8808;52.478;13.378;2023-05-10T13:33:41;23.40;66.80
17381;DHT22;8808;52.478;13.378;2023-05-10T13:36:09;23.40;66.60
17381;DHT22;8808;52.478;13.378;2023-05-10T13:38:36;23.40;66.00
17381;DHT22;8808;52.478;13.378;2023-05-10T13:41:03;23.20;68.00
17381;DHT22;8808;52.478;13.378;2023-05-10T13:43:30;23.20;66.90
17381;DHT22;8808;52.478;13.378;2023-05-10T13:45:57;22.70;67.50
17381;DHT22;8808;52.478;13.378;2023-05-10T13:48:24;22.60;68.40
17381;DHT22;8808;52.478;13.378;2023-05-10T13:50:51;23.00;68.50
17381;DHT22;8808;52.478;13.378;2023-05-10T13:53:20;22.90;67.60
17381;DHT22;8808;52.478;13.378;2023-05-10T13:55:47;22.90;67.40
17381;DHT22;8808;52.478;13.378;2023-05-10T13:58:14;22.80;67.20
17381;DHT22;8808;52.478;13.378;2023-05-10T14:00:41;22.90;66.20
17381;DHT22;8808;52.478;13.378;2023-05-10T14:03:08;22.80;65.50
17381;DHT22;8808;52.478;13.378;2023-05-10T14:05:36;22.60;66.80
17381;DHT22;8808;52.478;13.378;2023-05-10T14:08:03;22.60;66.90
17381;DHT22;8808;52.478;13.378;2023-05-10T14:10:31;22.70;66.60
17381;DHT22;8808;52.478;13.378;2023-05-10T14:12:58;23.00;66.90
17381;DHT22;8808;52.478;13.378;2023-05-10T14:15:25;23.10;65.30
17381;DHT22;8808;52.478;13.378;2023-05-10T14:17:52;23.10;65.00
17381;DHT22;8808;52.478;13.378;2023-05-10T14:20:19;23.10;65.50
17381;DHT22;8808;52.478;13.378;2023-05-10T14:22:46;22.80;64.60
17381;DHT22;8808;52.478;13.378;2023-05-10T14:25:13;22.70;65.10
17381;DHT22;8808;52.478;13.378;2023-05-10T14:27:42;22.70;64.80
17381;DHT22;8808;52.478;13.378;2023-05-10T14:30:09;22.60;64.80
17381;DHT22;8808;52.478;13.378;2023-05-10T14:32:37;22.60;65.40
17381;DHT22;8808;52.478;13.378;2023-05-10T14:35:04;22.70;65.50
17381;DHT22;8808;52.478;13.378;2023-05-10T14:37:31;22.90;65.00
17381;DHT22;8808;52.478;13.378;2023-05-10T14:39:58;22.80;66.00
17381;DHT22;8808;52.478;13.378;2023-05-10T14:42:25;22.70;64.80
17381;DHT22;8808;52.478;13.378;2023-05-10T14:44:55;22.60;65.60
17381;DHT22;8808;52.478;13.378;2023-05-10T14:47:22;22.50;65.90
17381;DHT22;8808;52.478;13.378;2023-05-10T14:49:49;22.60;67.00
17381;DHT22;8808;52.478;13.378;2023-05-10T14:52:16;22.50;65.70
17381;DHT22;8808;52.478;13.378;2023-05-10T14:54:43;22.40;66.30
17381;DHT22;8808;52.478;13.378;2023-05-10T14:57:10;22.20;65.80
17381;DHT22;8808;52.478;13.378;2023-05-10T14:59:37;22.20;67.00
17381;DHT22;8808;52.478;13.378;2023-05-10T15:02:06;22.30;66.20
17381;DHT22;8808;52.478;13.378;2023-05-10T15:04:33;22.40;66.60
17381;DHT22;8808;52.478;13.378;2023-05-10T15:07:00;22.30;65.80
17381;DHT22;8808;52.478;13.378;2023-05-10T15:09:28;22.40;68.60
17381;DHT22;8808;52.478;13.378;2023-05-10T15:11:55;22.50;66.80
17381;DHT22;8808;52.478;13.378;2023-05-10T15:14:22;22.40;68.10
17381;DHT22;8808;52.478;13.378;2023-05-10T15:16:49;22.50;67.90
17381;DHT22;8808;52.478;13.378;2023-05-10T15:19:17;22.30;65.80
17381;DHT22;8808;52.478;13.378;2023-05-10T15:21:44;22.40;66.20
17381;DHT22;8808;52.478;13.378;2023-05-10T15:24:11;22.20;65.50
17381;DHT22;8808;52.478;13.378;2023-05-10T15:26:38;22.20;67.60
17381;DHT22;8808;52.478;13.378;2023-05-10T15:29:05;22.10;66.10
17381;DHT22;8808;52.478;13.378;2023-05-10T15:31:32;22.10;67.10
17381;DHT22;8808;52.478;13.378;2023-05-10T15:34:00;22.10;66.50
17381;DHT22;8808;52.478;13.378;2023-05-10T15:36:28;22.20;67.10
17381;DHT22;8808;52.478;13.378;2023-05-10T15:38:55;22.10;67.10
17381;DHT22;8808;52.478;13.378;2023-05-10T15:41:22;22.20;67.50
17381;DHT22;8808;52.478;13.378;2023-05-10T15:43:50;22.50;68.40